Alisal, California
Current Conditions -  °F | °C
As of 7:53 PM on Saturday 22 Nov 2014 (Local Time) from KSNS Reporting Station
Broken Clouds Broken Clouds  
Wind Chill: 58°   Ceiling: 700
Heat Index: 58°   Visibility: 9mi
Dew Point: 54°   Wind: 0mph
Humidity: 87%   Direction: NA
Pressure: 30.19"   Gusts: NA
Location:  36.6786°N, 121.613°W
Report Text: KSNS 230353Z 00000KT 9SM BKN007 14/12 A3019 RMK AO2 SLP232 T01440122
Loading
Personal Weather Stations






























Interactive Weather Map New forecast layout! Learn more

10-Day Weather Forecast

Advertisements
Track Severe Weather on mobile